createdAt,value
2018-11-21T00:00:35.398Z,23.17
2018-11-21T00:03:04.393Z,24.23
2018-11-21T00:05:32.937Z,25.03
2018-11-21T00:08:01.530Z,26.60
2018-11-21T00:10:30.149Z,26.83
2018-11-21T00:12:58.883Z,23.93
2018-11-21T00:15:27.696Z,26.40
2018-11-21T00:17:56.181Z,23.80
2018-11-21T00:20:24.726Z,24.93
2018-11-21T00:22:53.172Z,26.67
2018-11-21T00:25:22.180Z,27.50
2018-11-21T00:27:50.700Z,24.20
2018-11-21T00:30:18.912Z,24.73
2018-11-21T00:32:48.690Z,24.70
2018-11-21T00:35:17.506Z,26.23
2018-11-21T00:37:46.013Z,27.93
2018-11-21T00:40:15.285Z,25.07
2018-11-21T00:42:46.897Z,24.80
2018-11-21T00:45:12.527Z,24.97
2018-11-21T00:47:41.041Z,26.63
2018-11-21T00:50:09.544Z,26.87
2018-11-21T00:52:37.785Z,25.73
2018-11-21T00:55:07.217Z,26.23
2018-11-21T00:57:36.052Z,24.13
2018-11-21T01:00:05.662Z,25.50
2018-11-21T01:02:34.772Z,28.10
2018-11-21T01:05:03.526Z,25.60
2018-11-21T01:07:32.023Z,25.80
2018-11-21T01:10:01.541Z,27.63
2018-11-21T01:12:30.591Z,28.20
2018-11-21T01:17:34.461Z,26.27
2018-11-21T01:20:03.196Z,26.37
2018-11-21T01:22:31.689Z,26.53
2018-11-21T01:24:59.847Z,26.20
2018-11-21T01:27:28.652Z,29.03
2018-11-21T01:29:57.440Z,25.27
2018-11-21T01:32:25.936Z,25.60
2018-11-21T01:34:54.776Z,28.27
2018-11-21T01:37:22.946Z,23.80
2018-11-21T01:39:51.427Z,26.17
2018-11-21T01:42:19.966Z,25.90
2018-11-21T01:44:48.740Z,27.23
2018-11-21T01:47:17.555Z,25.33
2018-11-21T01:49:46.312Z,27.23
2018-11-21T01:52:15.381Z,28.10
2018-11-21T01:54:44.191Z,31.10
2018-11-21T01:57:13.016Z,28.87
2018-11-21T01:59:42.600Z,28.70
2018-11-21T02:02:11.375Z,28.20
2018-11-21T02:04:40.214Z,30.43
2018-11-21T02:07:09.566Z,27.63
2018-11-21T02:09:38.392Z,28.07
2018-11-21T02:12:26.204Z,29.17
2018-11-21T02:14:54.685Z,27.50
2018-11-21T02:17:23.532Z,30.83
2018-11-21T02:19:51.745Z,26.97
2018-11-21T02:22:20.259Z,30.87
2018-11-21T02:24:49.108Z,28.27
2018-11-21T02:27:18.202Z,29.60
2018-11-21T02:29:46.374Z,33.70
2018-11-21T02:32:15.167Z,27.73
2018-11-21T02:34:44.612Z,27.13
2018-11-21T02:37:13.479Z,27.93
2018-11-21T02:39:41.982Z,29.77
2018-11-21T02:42:10.473Z,28.40
2018-11-21T02:44:39.563Z,29.40
2018-11-21T02:47:08.114Z,31.50
2018-11-21T02:49:37.827Z,27.53
2018-11-21T02:52:07.085Z,28.53
2018-11-21T02:54:36.711Z,30.87
2018-11-21T02:57:25.599Z,31.57
2018-11-21T02:59:56.936Z,30.50
2018-11-21T03:02:28.291Z,30.63
2018-11-21T03:04:57.274Z,29.77
2018-11-21T03:07:25.429Z,29.50
2018-11-21T03:09:54.879Z,29.47
2018-11-21T03:12:23.346Z,29.73
2018-11-21T03:14:52.128Z,33.63
2018-11-21T03:17:20.611Z,28.90
2018-11-21T03:19:49.688Z,31.17
2018-11-21T03:22:18.178Z,31.30
2018-11-21T03:24:46.355Z,27.40
2018-11-21T03:27:15.507Z,28.00
2018-11-21T03:29:44.278Z,30.33
2018-11-21T03:32:13.033Z,28.80
2018-11-21T03:34:41.565Z,29.27
2018-11-21T03:37:29.095Z,30.67
2018-11-21T03:39:57.876Z,31.67
2018-11-21T03:42:26.913Z,32.07
2018-11-21T03:44:55.701Z,29.63
2018-11-21T03:47:24.798Z,31.10
2018-11-21T03:49:53.290Z,32.90
2018-11-21T03:52:21.809Z,31.70
2018-11-21T03:54:50.663Z,30.93
2018-11-21T03:57:18.835Z,27.27
2018-11-21T03:59:47.318Z,32.80
2018-11-21T04:02:15.489Z,34.73
2018-11-21T04:04:43.653Z,30.10
2018-11-21T04:07:12.182Z,33.20
2018-11-21T04:09:40.731Z,32.23
2018-11-21T04:12:09.697Z,29.60
2018-11-21T04:14:38.147Z,30.13
2018-11-21T04:17:07.644Z,30.37
2018-11-21T04:19:36.381Z,33.00
2018-11-21T04:22:05.110Z,31.87
2018-11-21T04:24:33.872Z,28.63
2018-11-21T04:27:03.267Z,34.23
2018-11-21T04:29:32.078Z,31.23
2018-11-21T04:32:00.572Z,31.93
2018-11-21T04:34:29.089Z,33.97
2018-11-21T04:36:57.301Z,30.93
2018-11-21T04:39:25.488Z,30.63
2018-11-21T04:41:53.990Z,33.00
2018-11-21T04:44:22.735Z,34.87
2018-11-21T04:46:51.536Z,32.50
2018-11-21T04:49:19.707Z,32.27
2018-11-21T04:51:48.800Z,35.20
2018-11-21T04:54:17.739Z,32.70
2018-11-21T04:56:46.466Z,31.87
2018-11-21T04:59:14.904Z,31.90
2018-11-21T05:01:43.741Z,31.80
2018-11-21T05:04:12.273Z,30.20
2018-11-21T05:06:40.733Z,30.30
2018-11-21T05:09:10.918Z,31.40
2018-11-21T05:11:39.455Z,34.13
2018-11-21T05:14:08.548Z,29.73
2018-11-21T05:16:37.054Z,34.37
2018-11-21T05:19:24.693Z,31.20
2018-11-21T05:21:53.400Z,32.27
2018-11-21T05:24:21.590Z,31.43
2018-11-21T05:26:50.411Z,30.97
2018-11-21T05:29:18.578Z,34.70
2018-11-21T05:31:47.035Z,34.43
2018-11-21T05:34:15.214Z,34.40
2018-11-21T05:36:43.425Z,37.17
2018-11-21T05:39:12.941Z,35.13
2018-11-21T05:41:41.719Z,34.10
2018-11-21T05:44:09.877Z,34.03
2018-11-21T05:46:38.389Z,35.13
2018-11-21T05:49:07.780Z,35.97
2018-11-21T05:51:36.354Z,34.10
2018-11-21T05:54:04.957Z,37.30
2018-11-21T05:56:33.435Z,37.80
2018-11-21T05:59:01.655Z,34.20
2018-11-21T06:01:30.478Z,36.03
2018-11-21T06:03:58.949Z,34.30
2018-11-21T06:06:27.444Z,31.63
2018-11-21T06:08:56.190Z,34.10
2018-11-21T06:11:25.019Z,32.07
2018-11-21T06:13:54.355Z,30.00
2018-11-21T06:16:23.386Z,32.77
2018-11-21T06:18:52.451Z,29.83
2018-11-21T06:21:20.954Z,37.43
2018-11-21T06:23:49.844Z,37.17
2018-11-21T06:26:18.079Z,36.97
2018-11-21T06:28:46.557Z,36.40
2018-11-21T06:31:15.036Z,29.40
2018-11-21T06:33:43.575Z,33.17
2018-11-21T06:36:12.661Z,28.33
2018-11-21T06:38:41.340Z,37.70
2018-11-21T06:41:09.756Z,48.00
2018-11-21T06:43:38.215Z,54.07
2018-11-21T06:46:07.198Z,43.83
2018-11-21T06:48:35.399Z,37.97
2018-11-21T06:51:03.895Z,40.70
2018-11-21T06:53:32.369Z,42.93
2018-11-21T06:56:01.118Z,50.88
2018-11-21T06:58:48.714Z,41.77
2018-11-21T07:01:17.230Z,39.93
2018-11-21T07:03:45.451Z,35.23
2018-11-21T07:06:13.979Z,37.83
2018-11-21T07:08:43.052Z,33.53
2018-11-21T07:11:11.572Z,36.77
2018-11-21T07:13:40.465Z,36.48
2018-11-21T07:16:08.976Z,34.60
2018-11-21T07:18:37.733Z,41.15
2018-11-21T07:21:06.503Z,44.10
2018-11-21T07:23:35.436Z,41.48
2018-11-21T07:26:03.732Z,43.47
2018-11-21T07:28:33.109Z,38.80
2018-11-21T07:31:02.179Z,48.33
2018-11-21T07:33:31.800Z,38.33
2018-11-21T07:36:00.300Z,46.08
2018-11-21T07:38:29.538Z,37.85
2018-11-21T07:40:58.589Z,43.13
2018-11-21T07:43:27.192Z,41.53
2018-11-21T07:45:56.026Z,47.73
2018-11-21T07:48:24.202Z,45.98
2018-11-21T07:50:53.045Z,43.42
2018-11-21T07:53:21.593Z,46.77
2018-11-21T07:55:49.771Z,44.17
2018-11-21T07:58:20.933Z,41.92
2018-11-21T08:01:28.409Z,42.13
2018-11-21T08:04:15.707Z,40.15
2018-11-21T08:07:03.323Z,41.58
2018-11-21T08:09:50.608Z,37.93
2018-11-21T08:12:37.881Z,38.40
2018-11-21T08:15:26.164Z,37.83
2018-11-21T08:18:13.441Z,40.33
2018-11-21T08:21:00.775Z,43.20
2018-11-21T08:23:48.398Z,40.83
2018-11-21T08:26:36.081Z,37.98
2018-11-21T08:29:04.983Z,40.03
2018-11-21T08:31:34.350Z,41.67
2018-11-21T08:34:02.935Z,41.60
2018-11-21T08:36:31.744Z,35.70
2018-11-21T08:39:00.612Z,43.63
2018-11-21T08:41:29.573Z,37.53
2018-11-21T08:46:26.778Z,36.77
2018-11-21T08:48:55.560Z,38.10
2018-11-21T08:51:23.816Z,35.77
2018-11-21T08:53:52.404Z,36.70
2018-11-21T08:56:20.925Z,36.63
2018-11-21T08:58:49.857Z,35.33
2018-11-21T09:01:18.677Z,35.10
2018-11-21T09:03:48.112Z,31.80
2018-11-21T09:06:16.699Z,31.20
2018-11-21T09:08:45.129Z,33.10
2018-11-21T09:11:13.603Z,35.27
2018-11-21T09:13:42.044Z,35.47
2018-11-21T09:16:10.580Z,39.93
2018-11-21T09:18:39.191Z,39.60
2018-11-21T09:21:07.375Z,31.03
2018-11-21T09:23:35.567Z,32.27
2018-11-21T09:26:04.486Z,31.83
2018-11-21T09:28:33.865Z,28.90
2018-11-21T09:31:02.400Z,34.40
2018-11-21T09:33:30.952Z,34.70
2018-11-21T09:35:59.812Z,29.03
2018-11-21T09:38:28.234Z,31.17
2018-11-21T09:40:56.719Z,31.23
2018-11-21T09:43:25.231Z,33.73
2018-11-21T09:45:53.400Z,27.97
2018-11-21T09:48:22.245Z,31.93
2018-11-21T09:50:51.198Z,28.77
2018-11-21T09:53:19.377Z,28.70
2018-11-21T09:55:48.318Z,29.00
2018-11-21T09:58:16.625Z,28.43
2018-11-21T10:01:23.557Z,32.13
2018-11-21T10:03:52.949Z,28.50
2018-11-21T10:06:23.383Z,27.27
2018-11-21T10:09:11.295Z,30.07
2018-11-21T10:11:39.847Z,30.87
2018-11-21T10:14:08.014Z,26.70
2018-11-21T10:16:36.861Z,27.43
2018-11-21T10:19:05.917Z,27.27
2018-11-21T10:21:35.092Z,31.93
2018-11-21T10:24:03.939Z,30.77
2018-11-21T10:26:32.380Z,29.60
2018-11-21T10:29:00.559Z,32.10
2018-11-21T10:31:29.074Z,31.37
2018-11-21T10:33:58.113Z,29.30
2018-11-21T10:36:26.617Z,29.03
2018-11-21T10:38:55.130Z,28.77
2018-11-21T10:41:23.907Z,29.20
2018-11-21T10:44:11.481Z,27.07
2018-11-21T10:46:39.673Z,28.83
2018-11-21T10:49:27.633Z,28.40
2018-11-21T10:51:56.146Z,31.30
2018-11-21T10:54:24.677Z,28.27
2018-11-21T10:56:53.127Z,30.50
2018-11-21T10:59:22.144Z,27.20
2018-11-21T11:02:09.408Z,26.43
2018-11-21T11:04:51.547Z,28.70
2018-11-21T11:07:39.675Z,26.53
2018-11-21T11:10:29.397Z,27.30
2018-11-21T11:13:10.383Z,28.33
2018-11-21T11:15:57.868Z,26.20
2018-11-21T11:18:45.404Z,25.27
2018-11-21T11:21:32.930Z,24.93
2018-11-21T11:24:20.202Z,26.53
2018-11-21T11:27:07.818Z,27.00
2018-11-21T11:29:55.422Z,26.20
2018-11-21T11:32:42.967Z,26.83
2018-11-21T11:35:30.620Z,27.10
2018-11-21T11:38:18.519Z,27.13
2018-11-21T11:41:06.023Z,27.47
2018-11-21T11:43:53.300Z,26.80
2018-11-21T11:46:40.562Z,28.63
2018-11-21T11:49:27.854Z,30.30
2018-11-21T11:52:15.757Z,31.00
2018-11-21T11:55:03.307Z,30.43
2018-11-21T11:57:50.543Z,25.67
2018-11-21T12:00:37.802Z,26.17
2018-11-21T12:03:25.052Z,28.30
2018-11-21T12:06:12.664Z,26.73
2018-11-21T12:09:00.765Z,28.10
2018-11-21T12:11:47.754Z,29.03
2018-11-21T12:14:35.370Z,27.07
2018-11-21T12:17:22.647Z,26.43
2018-11-21T12:20:09.888Z,27.67
2018-11-21T12:22:57.176Z,27.70
2018-11-21T12:25:44.434Z,30.37
2018-11-21T12:28:31.763Z,28.73
2018-11-21T12:31:19.053Z,23.73
2018-11-21T12:34:06.319Z,27.37
2018-11-21T12:36:53.991Z,26.20
2018-11-21T12:39:41.560Z,29.83
2018-11-21T12:42:28.842Z,28.20
2018-11-21T12:45:16.398Z,29.30
2018-11-21T12:48:03.952Z,25.10
2018-11-21T12:50:51.203Z,28.50
2018-11-21T12:53:38.460Z,27.00
2018-11-21T12:56:25.710Z,33.00
2018-11-21T12:59:12.955Z,31.00
2018-11-21T13:02:00.861Z,26.30
2018-11-21T13:04:48.400Z,29.20
2018-11-21T13:07:35.922Z,28.10
2018-11-21T13:10:16.990Z,28.17
2018-11-21T13:13:04.867Z,29.83
2018-11-21T13:15:52.469Z,29.60
2018-11-21T13:18:40.182Z,28.23
2018-11-21T13:21:27.721Z,28.10
2018-11-21T13:24:15.234Z,27.60
2018-11-21T13:27:02.487Z,27.87
2018-11-21T13:29:50.131Z,32.50
2018-11-21T13:32:37.851Z,32.53
2018-11-21T13:35:25.874Z,31.40
2018-11-21T13:38:13.183Z,28.43
2018-11-21T13:41:00.436Z,29.30
2018-11-21T13:43:48.056Z,31.47
2018-11-21T13:46:35.448Z,30.40
2018-11-21T13:49:23.305Z,27.53
2018-11-21T13:52:10.883Z,35.20
2018-11-21T13:54:58.472Z,34.00
2018-11-21T13:57:27.279Z,31.50
2018-11-21T13:59:56.069Z,34.93
2018-11-21T14:02:24.975Z,31.60
2018-11-21T14:04:53.868Z,31.10
2018-11-21T14:07:22.429Z,32.20
2018-11-21T14:09:50.582Z,31.90
2018-11-21T14:12:19.104Z,32.30
2018-11-21T14:14:47.571Z,28.60
2018-11-21T14:17:16.068Z,29.37
2018-11-21T14:19:44.931Z,29.97
2018-11-21T14:22:13.146Z,29.97
2018-11-21T14:24:42.008Z,32.33
2018-11-21T14:27:29.609Z,35.10
2018-11-21T14:30:17.178Z,29.00
2018-11-21T14:32:46.019Z,30.33
2018-11-21T14:35:16.118Z,30.50
2018-11-21T14:37:45.063Z,30.60
2018-11-21T14:40:15.831Z,33.83
2018-11-21T14:42:44.394Z,30.97
2018-11-21T14:45:14.676Z,32.97
2018-11-21T14:47:43.899Z,34.20
2018-11-21T14:50:39.238Z,32.33
2018-11-21T14:53:04.131Z,32.00
2018-11-21T14:55:32.651Z,33.53
2018-11-21T14:58:01.397Z,33.20
2018-11-21T15:00:29.948Z,29.23
2018-11-21T15:02:58.121Z,34.40
2018-11-21T15:05:26.298Z,31.93
2018-11-21T15:07:55.015Z,33.33
2018-11-21T15:10:23.195Z,33.27
2018-11-21T15:12:51.996Z,33.50
2018-11-21T15:15:21.407Z,30.90
2018-11-21T15:17:49.569Z,30.97
2018-11-21T15:20:20.357Z,33.97
2018-11-21T15:22:48.821Z,30.87
2018-11-21T15:25:19.269Z,37.63
2018-11-21T15:27:47.797Z,32.37
2018-11-21T15:30:36.649Z,34.43
2018-11-21T15:33:05.712Z,34.43
2018-11-21T15:35:35.025Z,28.90
2018-11-21T15:38:03.815Z,31.20
2018-11-21T15:40:32.675Z,34.20
2018-11-21T15:43:01.434Z,28.90
2018-11-21T15:45:49.529Z,30.93
2018-11-21T15:48:18.238Z,36.50
2018-11-21T15:50:46.404Z,36.60
2018-11-21T15:53:15.457Z,34.37
2018-11-21T15:55:43.919Z,32.40
2018-11-21T15:58:12.428Z,35.40
2018-11-21T16:00:41.000Z,33.17
2018-11-21T16:03:28.292Z,32.57
2018-11-21T16:05:56.794Z,35.10
2018-11-21T16:08:25.579Z,35.50
2018-11-21T16:10:54.619Z,35.63
2018-11-21T16:13:42.462Z,34.57
2018-11-21T16:16:11.161Z,34.57
2018-11-21T16:18:39.326Z,40.73
2018-11-21T16:21:07.861Z,36.60
2018-11-21T16:23:36.327Z,37.57
2018-11-21T16:26:23.886Z,36.57
2018-11-21T16:28:52.864Z,36.47
2018-11-21T16:31:21.613Z,32.67
2018-11-21T16:33:50.133Z,32.80
2018-11-21T16:36:18.596Z,36.30
2018-11-21T16:38:46.744Z,35.60
2018-11-21T16:41:16.143Z,38.70
2018-11-21T16:43:44.617Z,39.40
2018-11-21T16:46:13.104Z,38.27
2018-11-21T16:48:42.264Z,37.87
2018-11-21T16:51:10.788Z,37.53
2018-11-21T16:53:38.959Z,38.00
2018-11-21T16:56:07.438Z,40.90
2018-11-21T16:58:35.616Z,36.20
2018-11-21T17:01:04.096Z,42.50
2018-11-21T17:03:32.879Z,37.57
2018-11-21T17:06:01.677Z,37.13
2018-11-21T17:08:30.187Z,31.70
2018-11-21T17:10:58.982Z,38.30
2018-11-21T17:13:27.473Z,37.40
2018-11-21T17:15:56.238Z,40.30
2018-11-21T17:18:24.960Z,34.23
2018-11-21T17:20:54.042Z,37.77
2018-11-21T17:23:22.498Z,36.00
2018-11-21T17:25:50.989Z,37.80
2018-11-21T17:28:19.751Z,34.87
2018-11-21T17:30:48.598Z,36.07
2018-11-21T17:33:17.120Z,36.23
2018-11-21T17:35:45.642Z,34.20
2018-11-21T17:38:33.688Z,31.50
2018-11-21T17:41:01.680Z,33.37
2018-11-21T17:43:30.806Z,31.93
2018-11-21T17:46:04.026Z,35.17
2018-11-21T17:48:28.249Z,33.83
2018-11-21T17:50:56.753Z,35.80
2018-11-21T17:53:25.590Z,35.20
2018-11-21T17:56:13.421Z,34.27
2018-11-21T17:58:42.830Z,33.67
2018-11-21T18:01:11.003Z,36.87
2018-11-21T18:03:39.945Z,36.43
2018-11-21T18:06:08.850Z,34.20
2018-11-21T18:08:37.365Z,33.63
2018-11-21T18:11:06.261Z,34.20
2018-11-21T18:13:34.736Z,32.47
2018-11-21T18:16:02.926Z,37.63
2018-11-21T18:18:31.762Z,32.20
2018-11-21T18:20:59.936Z,35.77
2018-11-21T18:23:28.097Z,34.03
2018-11-21T18:25:56.909Z,34.70
2018-11-21T18:28:25.100Z,33.50
2018-11-21T18:30:53.290Z,32.37
2018-11-21T18:33:21.803Z,33.50
2018-11-21T18:35:50.289Z,34.73
2018-11-21T18:38:18.486Z,31.80
2018-11-21T18:41:06.012Z,36.50
2018-11-21T18:43:34.159Z,33.57
2018-11-21T18:46:03.414Z,35.03
2018-11-21T18:48:32.191Z,31.27
2018-11-21T18:51:19.839Z,32.93
2018-11-21T18:53:48.294Z,32.50
2018-11-21T18:56:45.379Z,34.17
2018-11-21T18:59:34.854Z,31.23
2018-11-21T19:02:03.912Z,34.90
2018-11-21T19:04:32.747Z,36.83
2018-11-21T19:07:01.801Z,34.70
2018-11-21T19:09:30.674Z,30.80
2018-11-21T19:11:59.177Z,36.57
2018-11-21T19:14:27.334Z,30.40
2018-11-21T19:16:56.018Z,31.93
2018-11-21T19:19:24.712Z,32.33
2018-11-21T19:21:53.708Z,35.50
2018-11-21T19:24:22.213Z,30.03
2018-11-21T19:27:09.776Z,31.10
2018-11-21T19:29:38.606Z,29.73
2018-11-21T19:32:07.276Z,32.60
2018-11-21T19:34:36.508Z,32.17
2018-11-21T19:37:05.174Z,32.87
2018-11-21T19:39:33.453Z,30.83
2018-11-21T19:42:02.472Z,30.07
2018-11-21T19:44:31.796Z,29.90
2018-11-21T19:47:00.679Z,29.57
2018-11-21T19:49:33.343Z,26.47
2018-11-21T19:51:59.235Z,31.30
2018-11-21T19:54:27.865Z,30.67
2018-11-21T19:56:56.140Z,30.70
2018-11-21T19:59:24.741Z,28.57
2018-11-21T20:01:53.294Z,32.80
2018-11-21T20:04:21.864Z,28.50
2018-11-21T20:06:50.750Z,28.90
2018-11-21T20:09:38.712Z,30.90
2018-11-21T20:12:26.522Z,29.93
2018-11-21T20:14:55.233Z,31.07
2018-11-21T20:17:23.704Z,26.60
2018-11-21T20:19:52.570Z,30.33
2018-11-21T20:22:21.355Z,32.63
2018-11-21T20:24:50.628Z,31.10
2018-11-21T20:27:38.184Z,29.47
2018-11-21T20:30:10.231Z,29.87
2018-11-21T20:32:38.936Z,29.10
2018-11-21T20:35:09.226Z,33.30
2018-11-21T20:37:37.681Z,29.73
2018-11-21T20:40:29.192Z,30.70
2018-11-21T20:42:57.535Z,30.10
2018-11-21T20:45:27.160Z,30.13
2018-11-21T20:47:56.961Z,31.67
2018-11-21T20:50:26.451Z,30.87
2018-11-21T20:52:54.660Z,30.60
2018-11-21T20:55:28.151Z,29.40
2018-11-21T20:57:56.821Z,31.90
2018-11-21T21:00:44.826Z,32.47
2018-11-21T21:03:13.365Z,30.43
2018-11-21T21:06:01.081Z,28.30
2018-11-21T21:08:29.676Z,25.00
2018-11-21T21:10:58.270Z,29.67
2018-11-21T21:13:27.097Z,30.53
2018-11-21T21:15:56.111Z,28.10
2018-11-21T21:18:25.035Z,29.93
2018-11-21T21:20:54.025Z,29.03
2018-11-21T21:23:22.948Z,32.90
2018-11-21T21:25:51.433Z,34.60
2018-11-21T21:28:20.182Z,29.27
2018-11-21T21:30:48.678Z,30.20
2018-11-21T21:33:17.449Z,30.13
2018-11-21T21:35:46.116Z,34.17
2018-11-21T21:38:14.553Z,32.13
2018-11-21T21:40:43.036Z,28.57
2018-11-21T21:43:30.870Z,29.33
2018-11-21T21:45:59.309Z,28.13
2018-11-21T21:48:27.790Z,26.67
2018-11-21T21:50:55.986Z,29.80
2018-11-21T21:53:24.764Z,25.83
2018-11-21T21:56:12.019Z,32.00
2018-11-21T21:58:40.172Z,27.47
2018-11-21T22:01:27.428Z,31.67
2018-11-21T22:03:55.592Z,30.87
2018-11-21T22:06:24.063Z,30.90
2018-11-21T22:08:52.834Z,29.40
2018-11-21T22:11:21.298Z,27.63
2018-11-21T22:13:49.464Z,27.67
2018-11-21T22:16:17.696Z,25.90
2018-11-21T22:18:45.916Z,28.37
2018-11-21T22:21:14.535Z,24.50
2018-11-21T22:23:43.041Z,28.43
2018-11-21T22:26:11.829Z,27.53
2018-11-21T22:28:39.996Z,25.37
2018-11-21T22:31:09.258Z,26.53
2018-11-21T22:33:37.788Z,28.37
2018-11-21T22:36:06.451Z,26.40
2018-11-21T22:38:35.212Z,27.40
2018-11-21T22:41:04.014Z,26.73
2018-11-21T22:43:32.795Z,26.53
2018-11-21T22:46:01.589Z,23.70
2018-11-21T22:48:30.052Z,25.23
2018-11-21T22:50:58.494Z,26.63
2018-11-21T22:53:27.022Z,25.40
2018-11-21T22:55:55.535Z,24.00
2018-11-21T22:58:24.020Z,23.90
2018-11-21T23:00:53.248Z,26.63
2018-11-21T23:03:21.803Z,26.97
2018-11-21T23:05:50.300Z,24.67
2018-11-21T23:08:18.833Z,27.50
2018-11-21T23:10:47.971Z,24.17
2018-11-21T23:13:16.541Z,25.17
2018-11-21T23:15:45.399Z,22.63
2018-11-21T23:18:14.812Z,26.00
2018-11-21T23:20:43.947Z,25.13
2018-11-21T23:23:12.998Z,27.50
2018-11-21T23:25:41.172Z,28.97
2018-11-21T23:28:09.337Z,26.93
2018-11-21T23:30:37.869Z,27.57
2018-11-21T23:33:25.330Z,26.07
2018-11-21T23:35:54.066Z,30.13
2018-11-21T23:38:23.454Z,28.47
2018-11-21T23:40:51.993Z,31.10
2018-11-21T23:43:20.722Z,30.40
2018-11-21T23:45:49.573Z,26.33
2018-11-21T23:48:18.729Z,28.03
2018-11-21T23:51:07.210Z,26.77
2018-11-21T23:53:36.262Z,26.47
2018-11-21T23:56:04.839Z,27.83
2018-11-21T23:58:33.347Z,28.40
